sensor_id;sensor_type;location;lat;lon;timestamp;pressure;altitude;pressure_sealevel;temperature;humidity
3096;BME280;1558;42.700;23.360;2023-11-19T00:00:27;95252.63;;;6.61;81.15
3096;BME280;1558;42.700;23.360;2023-11-19T00:02:58;95260.69;;;6.61;81.34
3096;BME280;1558;42.700;23.360;2023-11-19T00:05:26;95255.31;;;6.61;80.87
3096;BME280;1558;42.700;23.360;2023-11-19T00:07:55;95214.19;;;6.35;80.05
3096;BME280;1558;42.700;23.360;2023-11-19T00:10:25;95249.59;;;6.54;80.22
3096;BME280;1558;42.700;23.360;2023-11-19T00:12:53;95245.50;;;6.48;80.79
3096;BME280;1558;42.700;23.360;2023-11-19T00:15:25;95250.84;;;6.78;79.30
3096;BME280;1558;42.700;23.360;2023-11-19T00:17:53;95210.44;;;6.36;80.79
3096;BME280;1558;42.700;23.360;2023-11-19T00:20:22;95239.47;;;6.42;80.67
3096;BME280;1558;42.700;23.360;2023-11-19T00:22:50;95263.88;;;6.63;79.86
3096;BME280;1558;42.700;23.360;2023-11-19T00:25:20;95255.72;;;6.46;79.94
3096;BME280;1558;42.700;23.360;2023-11-19T00:27:53;95266.13;;;6.47;80.40
3096;BME280;1558;42.700;23.360;2023-11-19T00:30:23;95262.22;;;6.53;80.06
3096;BME280;1558;42.700;23.360;2023-11-19T00:32:51;95250.81;;;6.39;80.00
3096;BME280;1558;42.700;23.360;2023-11-19T00:35:21;95266.13;;;6.47;80.24
3096;BME280;1558;42.700;23.360;2023-11-19T00:37:49;95261.06;;;6.68;80.59
3096;BME280;1558;42.700;23.360;2023-11-19T00:40:21;95278.13;;;6.50;80.74
3096;BME280;1558;42.700;23.360;2023-11-19T00:42:50;95270.53;;;6.43;80.84
3096;BME280;1558;42.700;23.360;2023-11-19T00:45:19;95263.44;;;6.47;80.98
3096;BME280;1558;42.700;23.360;2023-11-19T00:47:47;95152.09;;;5.58;81.18
3096;BME280;1558;42.700;23.360;2023-11-19T00:50:16;95275.03;;;6.34;81.39
3096;BME280;1558;42.700;23.360;2023-11-19T00:52:45;95264.25;;;6.26;81.11
3096;BME280;1558;42.700;23.360;2023-11-19T00:55:16;95119.19;;;5.35;81.37
3096;BME280;1558;42.700;23.360;2023-11-19T00:57:44;95272.22;;;6.39;81.00
3096;BME280;1558;42.700;23.360;2023-11-19T01:00:13;95263.56;;;6.42;81.32
3096;BME280;1558;42.700;23.360;2023-11-19T01:02:48;95273.56;;;6.50;81.66
3096;BME280;1558;42.700;23.360;2023-11-19T01:05:22;95249.59;;;6.54;80.96
3096;BME280;1558;42.700;23.360;2023-11-19T01:08:03;95278.56;;;6.74;81.13
3096;BME280;1558;42.700;23.360;2023-11-19T01:10:39;95277.63;;;6.70;81.06
3096;BME280;1558;42.700;23.360;2023-11-19T01:13:12;95292.06;;;6.60;80.82
3096;BME280;1558;42.700;23.360;2023-11-19T01:15:47;95290.47;;;6.59;80.55
3096;BME280;1558;42.700;23.360;2023-11-19T01:18:25;95278.47;;;6.57;81.02
3096;BME280;1558;42.700;23.360;2023-11-19T01:21:03;95248.91;;;6.40;80.75
3096;BME280;1558;42.700;23.360;2023-11-19T01:23:39;95281.47;;;6.55;80.23
3096;BME280;1558;42.700;23.360;2023-11-19T01:26:20;95279.06;;;6.54;80.65
3096;BME280;1558;42.700;23.360;2023-11-19T01:28:54;95270.28;;;6.53;80.53
3096;BME280;1558;42.700;23.360;2023-11-19T01:31:23;95113.91;;;5.43;80.21
3096;BME280;1558;42.700;23.360;2023-11-19T01:33:53;95275.19;;;6.60;79.74
3096;BME280;1558;42.700;23.360;2023-11-19T01:36:29;95287.06;;;6.67;79.91
3096;BME280;1558;42.700;23.360;2023-11-19T01:39:00;95284.88;;;6.69;79.66
3096;BME280;1558;42.700;23.360;2023-11-19T01:41:33;95285.91;;;6.60;79.20
3096;BME280;1558;42.700;23.360;2023-11-19T01:44:02;95297.34;;;6.74;79.55
3096;BME280;1558;42.700;23.360;2023-11-19T01:46:31;95262.16;;;6.45;79.67
3096;BME280;1558;42.700;23.360;2023-11-19T01:49:02;95289.50;;;6.55;78.93
3096;BME280;1558;42.700;23.360;2023-11-19T01:51:31;95281.03;;;6.40;79.54
3096;BME280;1558;42.700;23.360;2023-11-19T01:53:59;95298.94;;;6.31;80.07
3096;BME280;1558;42.700;23.360;2023-11-19T01:56:27;95295.97;;;6.32;79.38
3096;BME280;1558;42.700;23.360;2023-11-19T01:58:57;95292.00;;;6.30;79.60
3096;BME280;1558;42.700;23.360;2023-11-19T02:01:25;95296.34;;;6.39;78.81
3096;BME280;1558;42.700;23.360;2023-11-19T02:03:54;95294.81;;;6.25;79.33
3096;BME280;1558;42.700;23.360;2023-11-19T02:06:25;95292.69;;;6.13;79.38
3096;BME280;1558;42.700;23.360;2023-11-19T02:08:54;95292.94;;;6.25;79.57
3096;BME280;1558;42.700;23.360;2023-11-19T02:11:22;95278.50;;;6.12;79.24
3096;BME280;1558;42.700;23.360;2023-11-19T02:13:59;95141.19;;;5.32;79.36
3096;BME280;1558;42.700;23.360;2023-11-19T02:16:27;95219.41;;;5.87;79.19
3096;BME280;1558;42.700;23.360;2023-11-19T02:18:58;95272.66;;;6.10;78.95
3096;BME280;1558;42.700;23.360;2023-11-19T02:21:27;95263.28;;;6.22;78.93
3096;BME280;1558;42.700;23.360;2023-11-19T02:23:56;95260.22;;;6.14;78.82
3096;BME280;1558;42.700;23.360;2023-11-19T02:26:39;95266.66;;;6.13;79.45
3096;BME280;1558;42.700;23.360;2023-11-19T02:29:13;95265.16;;;5.99;79.84
3096;BME280;1558;42.700;23.360;2023-11-19T02:31:41;95282.03;;;6.22;79.03
3096;BME280;1558;42.700;23.360;2023-11-19T02:34:10;95191.47;;;5.43;78.87
3096;BME280;1558;42.700;23.360;2023-11-19T02:36:39;95265.75;;;5.96;79.49
3096;BME280;1558;42.700;23.360;2023-11-19T02:39:08;95272.19;;;5.95;80.15
3096;BME280;1558;42.700;23.360;2023-11-19T02:41:39;95264.84;;;6.00;79.55
3096;BME280;1558;42.700;23.360;2023-11-19T02:44:07;95282.84;;;5.86;80.45
3096;BME280;1558;42.700;23.360;2023-11-19T02:46:36;95270.44;;;5.90;80.23
3096;BME280;1558;42.700;23.360;2023-11-19T02:49:04;95267.66;;;5.82;80.76
3096;BME280;1558;42.700;23.360;2023-11-19T02:51:35;95270.94;;;5.79;80.81
3096;BME280;1558;42.700;23.360;2023-11-19T02:54:03;95271.41;;;5.81;81.20
3096;BME280;1558;42.700;23.360;2023-11-19T02:56:31;95273.81;;;5.82;80.94
3096;BME280;1558;42.700;23.360;2023-11-19T02:59:03;95262.78;;;5.84;81.16
3096;BME280;1558;42.700;23.360;2023-11-19T03:01:41;95266.69;;;5.91;80.90
3096;BME280;1558;42.700;23.360;2023-11-19T03:04:10;95247.28;;;5.72;80.55
3096;BME280;1558;42.700;23.360;2023-11-19T03:06:43;95272.41;;;5.85;80.91
3096;BME280;1558;42.700;23.360;2023-11-19T03:09:11;95242.84;;;5.54;80.51
3096;BME280;1558;42.700;23.360;2023-11-19T03:11:39;95279.06;;;5.87;81.12
3096;BME280;1558;42.700;23.360;2023-11-19T03:14:07;95272.63;;;5.88;80.99
3096;BME280;1558;42.700;23.360;2023-11-19T03:16:35;95278.84;;;5.97;80.65
3096;BME280;1558;42.700;23.360;2023-11-19T03:19:05;95276.28;;;5.92;80.43
3096;BME280;1558;42.700;23.360;2023-11-19T03:21:33;95281.03;;;5.95;80.44
3096;BME280;1558;42.700;23.360;2023-11-19T03:24:02;95281.63;;;5.92;80.61
3096;BME280;1558;42.700;23.360;2023-11-19T03:26:30;95277.88;;;5.93;80.33
3096;BME280;1558;42.700;23.360;2023-11-19T03:29:00;95271.41;;;5.94;80.29
3096;BME280;1558;42.700;23.360;2023-11-19T03:31:29;95276.91;;;5.89;80.46
3096;BME280;1558;42.700;23.360;2023-11-19T03:33:57;95277.50;;;5.86;80.34
3096;BME280;1558;42.700;23.360;2023-11-19T03:36:31;95273.59;;;5.92;80.57
3096;BME280;1558;42.700;23.360;2023-11-19T03:39:00;95283.31;;;5.88;80.26
3096;BME280;1558;42.700;23.360;2023-11-19T03:41:29;95258.09;;;5.67;80.45
3096;BME280;1558;42.700;23.360;2023-11-19T03:44:07;95270.72;;;5.75;80.65
3096;BME280;1558;42.700;23.360;2023-11-19T03:46:35;95202.69;;;5.32;80.19
3096;BME280;1558;42.700;23.360;2023-11-19T03:49:07;95305.34;;;5.85;80.32
3096;BME280;1558;42.700;23.360;2023-11-19T03:51:36;95304.44;;;5.76;80.60
3096;BME280;1558;42.700;23.360;2023-11-19T03:54:06;95314.66;;;5.74;81.01
3096;BME280;1558;42.700;23.360;2023-11-19T03:56:34;95153.28;;;4.80;80.20
3096;BME280;1558;42.700;23.360;2023-11-19T03:59:05;95304.63;;;5.80;80.71
3096;BME280;1558;42.700;23.360;2023-11-19T04:01:34;95303.94;;;5.74;80.94
3096;BME280;1558;42.700;23.360;2023-11-19T04:04:02;95298.50;;;5.79;81.32
3096;BME280;1558;42.700;23.360;2023-11-19T04:06:30;95314.38;;;5.89;80.25
3096;BME280;1558;42.700;23.360;2023-11-19T04:09:00;95317.00;;;5.76;80.53
3096;BME280;1558;42.700;23.360;2023-11-19T04:11:28;95317.91;;;5.85;80.51
3096;BME280;1558;42.700;23.360;2023-11-19T04:13:57;95342.59;;;5.82;80.21
3096;BME280;1558;42.700;23.360;2023-11-19T04:16:28;95334.47;;;5.73;79.76
3096;BME280;1558;42.700;23.360;2023-11-19T04:18:59;95334.66;;;5.90;80.23
3096;BME280;1558;42.700;23.360;2023-11-19T04:21:29;95324.88;;;5.72;79.98
3096;BME280;1558;42.700;23.360;2023-11-19T04:23:58;95339.91;;;5.95;79.98
3096;BME280;1558;42.700;23.360;2023-11-19T04:26:27;95343.06;;;5.97;80.12
3096;BME280;1558;42.700;23.360;2023-11-19T04:28:57;95324.66;;;5.96;80.52
3096;BME280;1558;42.700;23.360;2023-11-19T04:31:29;95329.31;;;5.90;79.88
3096;BME280;1558;42.700;23.360;2023-11-19T04:33:58;95333.97;;;5.85;80.67
3096;BME280;1558;42.700;23.360;2023-11-19T04:36:27;95286.94;;;5.43;80.43
3096;BME280;1558;42.700;23.360;2023-11-19T04:38:56;95349.63;;;5.78;80.26
3096;BME280;1558;42.700;23.360;2023-11-19T04:41:27;95346.94;;;5.78;80.54
3096;BME280;1558;42.700;23.360;2023-11-19T04:43:56;95353.88;;;5.79;80.18
3096;BME280;1558;42.700;23.360;2023-11-19T04:46:24;95357.78;;;5.73;80.84
3096;BME280;1558;42.700;23.360;2023-11-19T04:48:52;95373.69;;;5.78;80.59
3096;BME280;1558;42.700;23.360;2023-11-19T04:51:22;95285.97;;;5.25;80.91
3096;BME280;1558;42.700;23.360;2023-11-19T04:53:50;95326.28;;;5.56;80.73
3096;BME280;1558;42.700;23.360;2023-11-19T04:56:18;95376.59;;;5.81;80.32
3096;BME280;1558;42.700;23.360;2023-11-19T04:58:47;95362.31;;;5.72;80.12
3096;BME280;1558;42.700;23.360;2023-11-19T05:01:15;95375.81;;;5.67;80.44
3096;BME280;1558;42.700;23.360;2023-11-19T05:03:47;95310.94;;;5.34;80.49
3096;BME280;1558;42.700;23.360;2023-11-19T05:06:15;95387.50;;;5.85;80.67
3096;BME280;1558;42.700;23.360;2023-11-19T05:08:44;95375.28;;;5.79;79.82
3096;BME280;1558;42.700;23.360;2023-11-19T05:11:13;95392.25;;;5.88;79.90
3096;BME280;1558;42.700;23.360;2023-11-19T05:13:44;95395.25;;;5.86;79.90
3096;BME280;1558;42.700;23.360;2023-11-19T05:16:14;95393.94;;;5.84;80.32
3096;BME280;1558;42.700;23.360;2023-11-19T05:18:42;95390.69;;;5.87;79.54
3096;BME280;1558;42.700;23.360;2023-11-19T05:21:11;95392.63;;;5.81;79.78
3096;BME280;1558;42.700;23.360;2023-11-19T05:23:39;95316.47;;;5.24;79.72
3096;BME280;1558;42.700;23.360;2023-11-19T05:26:08;95382.34;;;5.75;79.98
3096;BME280;1558;42.700;23.360;2023-11-19T05:28:38;95379.94;;;5.73;80.23
3096;BME280;1558;42.700;23.360;2023-11-19T05:31:07;95384.13;;;5.79;79.43
3096;BME280;1558;42.700;23.360;2023-11-19T05:33:38;95395.59;;;5.66;80.30
3096;BME280;1558;42.700;23.360;2023-11-19T05:36:08;95347.06;;;5.45;79.97
3096;BME280;1558;42.700;23.360;2023-11-19T05:38:36;95399.78;;;5.72;80.35
3096;BME280;1558;42.700;23.360;2023-11-19T05:41:05;95387.47;;;5.71;79.66
3096;BME280;1558;42.700;23.360;2023-11-19T05:43:34;95403.19;;;5.91;79.05
3096;BME280;1558;42.700;23.360;2023-11-19T05:46:02;95401.97;;;5.97;78.73
3096;BME280;1558;42.700;23.360;2023-11-19T05:48:47;95405.22;;;5.81;79.82
3096;BME280;1558;42.700;23.360;2023-11-19T05:51:15;95410.88;;;5.79;79.83
3096;BME280;1558;42.700;23.360;2023-11-19T05:53:43;95382.34;;;5.75;79.37
3096;BME280;1558;42.700;23.360;2023-11-19T05:56:13;95407.25;;;5.89;79.47
3096;BME280;1558;42.700;23.360;2023-11-19T05:58:43;95404.84;;;5.87;79.31
3096;BME280;1558;42.700;23.360;2023-11-19T06:01:11;95415.44;;;5.92;79.07
3096;BME280;1558;42.700;23.360;2023-11-19T06:03:40;95350.13;;;5.53;79.10
3096;BME280;1558;42.700;23.360;2023-11-19T06:06:36;95415.56;;;6.01;78.59
3096;BME280;1558;42.700;23.360;2023-11-19T06:09:04;95418.63;;;6.08;78.90
3096;BME280;1558;42.700;23.360;2023-11-19T06:11:36;95345.38;;;5.49;78.78
3096;BME280;1558;42.700;23.360;2023-11-19T06:14:06;95424.25;;;6.06;78.35
3096;BME280;1558;42.700;23.360;2023-11-19T06:16:34;95429.59;;;6.06;78.72
3096;BME280;1558;42.700;23.360;2023-11-19T06:19:03;95434.47;;;6.04;78.56
3096;BME280;1558;42.700;23.360;2023-11-19T06:21:32;95441.44;;;6.05;78.29
3096;BME280;1558;42.700;23.360;2023-11-19T06:24:01;95389.78;;;5.91;78.26
3096;BME280;1558;42.700;23.360;2023-11-19T06:26:30;95421.69;;;6.01;77.96
3096;BME280;1558;42.700;23.360;2023-11-19T06:28:58;95378.19;;;5.82;79.02
3096;BME280;1558;42.700;23.360;2023-11-19T06:31:27;95421.41;;;6.03;78.48
3096;BME280;1558;42.700;23.360;2023-11-19T06:33:57;95400.66;;;5.81;78.94
3096;BME280;1558;42.700;23.360;2023-11-19T06:36:26;95404.66;;;5.97;79.51
3096;BME280;1558;42.700;23.360;2023-11-19T06:38:55;95420.81;;;5.92;78.93
3096;BME280;1558;42.700;23.360;2023-11-19T06:41:24;95426.06;;;5.97;78.61
3096;BME280;1558;42.700;23.360;2023-11-19T06:43:52;95425.47;;;6.00;79.02
3096;BME280;1558;42.700;23.360;2023-11-19T06:46:20;95412.44;;;5.80;78.83
3096;BME280;1558;42.700;23.360;2023-11-19T06:48:49;95434.50;;;5.91;77.82
3096;BME280;1558;42.700;23.360;2023-11-19T06:51:17;95438.25;;;6.03;78.35
3096;BME280;1558;42.700;23.360;2023-11-19T06:53:45;95425.75;;;6.12;77.73
3096;BME280;1558;42.700;23.360;2023-11-19T06:56:25;95418.78;;;6.25;77.58
3096;BME280;1558;42.700;23.360;2023-11-19T06:59:01;95417.00;;;6.34;76.30
3096;BME280;1558;42.700;23.360;2023-11-19T07:01:38;95235.78;;;5.22;76.00
3096;BME280;1558;42.700;23.360;2023-11-19T07:04:24;95394.13;;;5.74;75.86
3096;BME280;1558;42.700;23.360;2023-11-19T07:07:08;95442.63;;;6.13;76.31
3096;BME280;1558;42.700;23.360;2023-11-19T07:09:54;95369.75;;;5.62;76.40
3096;BME280;1558;42.700;23.360;2023-11-19T07:12:24;95444.88;;;6.20;76.27
3096;BME280;1558;42.700;23.360;2023-11-19T07:14:57;95446.66;;;6.24;76.55
3096;BME280;1558;42.700;23.360;2023-11-19T07:17:28;95433.84;;;6.21;75.68
3096;BME280;1558;42.700;23.360;2023-11-19T07:19:58;95443.22;;;5.96;76.26
3096;BME280;1558;42.700;23.360;2023-11-19T07:22:28;95438.63;;;5.97;76.24
3096;BME280;1558;42.700;23.360;2023-11-19T07:25:02;95280.81;;;4.74;76.58
3096;BME280;1558;42.700;23.360;2023-11-19T07:27:32;95457.78;;;5.90;77.34
3096;BME280;1558;42.700;23.360;2023-11-19T07:30:00;95439.22;;;5.80;76.85
3096;BME280;1558;42.700;23.360;2023-11-19T07:32:28;95468.09;;;5.97;76.59
3096;BME280;1558;42.700;23.360;2023-11-19T07:35:00;95475.53;;;5.86;76.42
3096;BME280;1558;42.700;23.360;2023-11-19T07:37:30;95479.00;;;5.87;76.77
3096;BME280;1558;42.700;23.360;2023-11-19T07:40:02;95459.44;;;5.73;77.08
3096;BME280;1558;42.700;23.360;2023-11-19T07:42:38;95438.13;;;5.81;76.98
3096;BME280;1558;42.700;23.360;2023-11-19T07:45:07;95479.41;;;5.94;76.41
3096;BME280;1558;42.700;23.360;2023-11-19T07:47:35;95447.06;;;5.77;76.57
3096;BME280;1558;42.700;23.360;2023-11-19T07:50:09;95438.44;;;5.80;76.64
3096;BME280;1558;42.700;23.360;2023-11-19T07:52:41;95473.16;;;5.98;75.86
3096;BME280;1558;42.700;23.360;2023-11-19T07:55:21;95496.34;;;6.17;75.89
3096;BME280;1558;42.700;23.360;2023-11-19T07:58:01;95460.78;;;7.10;73.27
3096;BME280;1558;42.700;23.360;2023-11-19T08:00:32;95473.84;;;7.25;70.82
3096;BME280;1558;42.700;23.360;2023-11-19T08:03:00;95488.56;;;7.58;70.84
3096;BME280;1558;42.700;23.360;2023-11-19T08:05:29;95488.38;;;7.55;67.77
3096;BME280;1558;42.700;23.360;2023-11-19T08:07:57;95483.31;;;7.53;68.31
3096;BME280;1558;42.700;23.360;2023-11-19T08:10:25;95483.66;;;7.91;68.94
3096;BME280;1558;42.700;23.360;2023-11-19T08:12:55;95449.44;;;8.05;67.13
3096;BME280;1558;42.700;23.360;2023-11-19T08:15:24;95487.78;;;7.97;66.40
3096;BME280;1558;42.700;23.360;2023-11-19T08:18:00;95496.91;;;7.57;68.21
3096;BME280;1558;42.700;23.360;2023-11-19T08:20:30;95497.66;;;7.26;67.95
3096;BME280;1558;42.700;23.360;2023-11-19T08:23:02;95499.72;;;7.07;68.97
3096;BME280;1558;42.700;23.360;2023-11-19T08:25:34;95499.31;;;7.14;68.49
3096;BME280;1558;42.700;23.360;2023-11-19T08:28:13;95508.50;;;6.99;69.39
3096;BME280;1558;42.700;23.360;2023-11-19T08:30:44;95473.91;;;6.53;69.81
3096;BME280;1558;42.700;23.360;2023-11-19T08:33:14;95510.78;;;6.70;70.57
3096;BME280;1558;42.700;23.360;2023-11-19T08:35:56;95454.06;;;6.41;70.41
3096;BME280;1558;42.700;23.360;2023-11-19T08:38:39;95465.19;;;6.34;70.81
3096;BME280;1558;42.700;23.360;2023-11-19T08:41:22;95526.72;;;6.39;71.12
3096;BME280;1558;42.700;23.360;2023-11-19T08:44:09;95489.63;;;6.05;72.33
3096;BME280;1558;42.700;23.360;2023-11-19T08:46:38;95486.44;;;5.90;73.14
3096;BME280;1558;42.700;23.360;2023-11-19T08:49:14;95532.84;;;6.12;73.05
3096;BME280;1558;42.700;23.360;2023-11-19T08:51:48;95366.47;;;5.24;72.94
3096;BME280;1558;42.700;23.360;2023-11-19T08:54:18;95520.34;;;6.22;73.48
3096;BME280;1558;42.700;23.360;2023-11-19T08:56:53;95544.34;;;6.27;73.13
3096;BME280;1558;42.700;23.360;2023-11-19T09:03:12;95523.50;;;6.51;72.46
3096;BME280;1558;42.700;23.360;2023-11-19T09:06:00;95514.53;;;6.69;71.88
3096;BME280;1558;42.700;23.360;2023-11-19T09:08:32;95483.69;;;7.16;69.92
3096;BME280;1558;42.700;23.360;2023-11-19T09:11:06;95497.00;;;7.43;68.39
3096;BME280;1558;42.700;23.360;2023-11-19T09:13:35;95481.25;;;7.50;68.15
3096;BME280;1558;42.700;23.360;2023-11-19T09:16:11;95488.81;;;7.26;68.18
3096;BME280;1558;42.700;23.360;2023-11-19T09:18:41;95455.78;;;7.17;68.20
3096;BME280;1558;42.700;23.360;2023-11-19T09:21:10;95402.22;;;7.03;67.31
3096;BME280;1558;42.700;23.360;2023-11-19T09:23:38;95482.00;;;7.73;65.75
3096;BME280;1558;42.700;23.360;2023-11-19T09:26:08;95516.03;;;7.86;66.87
3096;BME280;1558;42.700;23.360;2023-11-19T09:28:36;95500.13;;;7.67;66.13
3096;BME280;1558;42.700;23.360;2023-11-19T09:31:13;95521.97;;;7.52;64.84
3096;BME280;1558;42.700;23.360;2023-11-19T09:33:43;95504.38;;;7.15;66.77
3096;BME280;1558;42.700;23.360;2023-11-19T09:36:12;95489.31;;;7.06;66.90
3096;BME280;1558;42.700;23.360;2023-11-19T09:38:41;95495.47;;;7.06;67.77
3096;BME280;1558;42.700;23.360;2023-11-19T09:41:09;95483.72;;;6.94;67.41
3096;BME280;1558;42.700;23.360;2023-11-19T09:43:39;95479.38;;;7.06;67.69
3096;BME280;1558;42.700;23.360;2023-11-19T09:46:09;95474.22;;;6.74;67.37
3096;BME280;1558;42.700;23.360;2023-11-19T09:48:39;95448.13;;;6.44;68.33
3096;BME280;1558;42.700;23.360;2023-11-19T09:51:09;95459.75;;;6.75;68.84
3096;BME280;1558;42.700;23.360;2023-11-19T09:53:38;95440.84;;;7.02;68.64
3096;BME280;1558;42.700;23.360;2023-11-19T09:56:07;95403.69;;;6.87;67.56
3096;BME280;1558;42.700;23.360;2023-11-19T09:58:37;95450.38;;;7.08;66.81
3096;BME280;1558;42.700;23.360;2023-11-19T10:01:05;95445.69;;;6.92;67.74
3096;BME280;1558;42.700;23.360;2023-11-19T10:03:40;95456.22;;;7.10;66.22
3096;BME280;1558;42.700;23.360;2023-11-19T10:06:12;95450.50;;;7.03;66.95
3096;BME280;1558;42.700;23.360;2023-11-19T10:08:43;95396.38;;;6.79;67.87
3096;BME280;1558;42.700;23.360;2023-11-19T10:11:11;95424.78;;;7.02;67.77
3096;BME280;1558;42.700;23.360;2023-11-19T10:13:42;95443.66;;;6.97;67.55
3096;BME280;1558;42.700;23.360;2023-11-19T10:16:15;95430.47;;;6.87;68.26
3096;BME280;1558;42.700;23.360;2023-11-19T10:18:45;95424.59;;;6.99;67.65
3096;BME280;1558;42.700;23.360;2023-11-19T10:21:15;95458.97;;;7.19;67.09
3096;BME280;1558;42.700;23.360;2023-11-19T10:23:49;95461.75;;;7.14;67.19
3096;BME280;1558;42.700;23.360;2023-11-19T10:26:19;95428.00;;;7.13;67.24
3096;BME280;1558;42.700;23.360;2023-11-19T10:28:47;95436.66;;;7.32;66.92
3096;BME280;1558;42.700;23.360;2023-11-19T10:31:16;95443.41;;;7.29;65.95
3096;BME280;1558;42.700;23.360;2023-11-19T10:33:44;95440.22;;;7.27;66.40
3096;BME280;1558;42.700;23.360;2023-11-19T10:36:14;95443.66;;;7.19;66.34
3096;BME280;1558;42.700;23.360;2023-11-19T10:38:51;95344.41;;;6.66;66.35
3096;BME280;1558;42.700;23.360;2023-11-19T10:41:27;95423.06;;;7.06;66.66
3096;BME280;1558;42.700;23.360;2023-11-19T10:43:56;95417.75;;;6.93;66.54
3096;BME280;1558;42.700;23.360;2023-11-19T10:46:36;95412.28;;;7.20;67.41
3096;BME280;1558;42.700;23.360;2023-11-19T10:49:04;95435.28;;;7.21;66.21
3096;BME280;1558;42.700;23.360;2023-11-19T10:51:34;95422.19;;;7.19;66.61
3096;BME280;1558;42.700;23.360;2023-11-19T10:54:04;95427.00;;;7.31;65.89
3096;BME280;1558;42.700;23.360;2023-11-19T10:56:34;95430.72;;;7.21;65.36
3096;BME280;1558;42.700;23.360;2023-11-19T10:59:02;95434.56;;;7.29;65.56
3096;BME280;1558;42.700;23.360;2023-11-19T11:01:51;95428.41;;;7.06;64.76
3096;BME280;1558;42.700;23.360;2023-11-19T11:04:23;95425.38;;;7.21;65.31
3096;BME280;1558;42.700;23.360;2023-11-19T11:06:54;95429.28;;;7.15;65.42
3096;BME280;1558;42.700;23.360;2023-11-19T11:09:26;95409.41;;;7.16;66.02
3096;BME280;1558;42.700;23.360;2023-11-19T11:11:56;95415.56;;;7.47;65.23
3096;BME280;1558;42.700;23.360;2023-11-19T11:14:27;95410.56;;;7.63;64.89
3096;BME280;1558;42.700;23.360;2023-11-19T11:16:58;95408.22;;;7.62;64.97
3096;BME280;1558;42.700;23.360;2023-11-19T11:19:26;95400.81;;;7.67;65.19
3096;BME280;1558;42.700;23.360;2023-11-19T11:21:56;95403.97;;;7.69;65.06
3096;BME280;1558;42.700;23.360;2023-11-19T11:24:49;95405.59;;;7.79;65.15
3096;BME280;1558;42.700;23.360;2023-11-19T11:27:42;95411.31;;;7.86;65.05
3096;BME280;1558;42.700;23.360;2023-11-19T11:30:23;95400.78;;;8.06;64.16
3096;BME280;1558;42.700;23.360;2023-11-19T11:33:04;95388.00;;;8.20;64.51
3096;BME280;1558;42.700;23.360;2023-11-19T11:35:42;95336.66;;;8.39;61.91
3096;BME280;1558;42.700;23.360;2023-11-19T11:38:17;95402.41;;;9.19;61.59
3096;BME280;1558;42.700;23.360;2023-11-19T11:41:14;95391.25;;;9.54;59.41
3096;BME280;1558;42.700;23.360;2023-11-19T11:43:46;95386.31;;;9.57;58.77
3096;BME280;1558;42.700;23.360;2023-11-19T11:49:27;95371.19;;;9.81;59.10
3096;BME280;1558;42.700;23.360;2023-11-19T11:52:00;95369.00;;;10.33;58.04
3096;BME280;1558;42.700;23.360;2023-11-19T11:54:32;95366.69;;;10.44;57.08
3096;BME280;1558;42.700;23.360;2023-11-19T11:57:03;95361.31;;;10.44;56.53
3096;BME280;1558;42.700;23.360;2023-11-19T11:59:45;95365.13;;;10.22;56.14
3096;BME280;1558;42.700;23.360;2023-11-19T12:02:14;95384.03;;;10.13;56.84
3096;BME280;1558;42.700;23.360;2023-11-19T12:04:43;95324.22;;;9.62;56.05
3096;BME280;1558;42.700;23.360;2023-11-19T12:07:16;95324.06;;;9.58;56.76
3096;BME280;1558;42.700;23.360;2023-11-19T12:09:49;95347.34;;;9.63;57.56
3096;BME280;1558;42.700;23.360;2023-11-19T12:12:21;95358.19;;;9.75;57.46
3096;BME280;1558;42.700;23.360;2023-11-19T12:15:06;95363.13;;;9.73;56.61
3096;BME280;1558;42.700;23.360;2023-11-19T12:17:41;95360.88;;;9.83;56.51
3096;BME280;1558;42.700;23.360;2023-11-19T12:20:11;95336.34;;;9.76;55.49
3096;BME280;1558;42.700;23.360;2023-11-19T12:22:40;95318.13;;;10.02;56.29
3096;BME280;1558;42.700;23.360;2023-11-19T12:25:11;95338.53;;;10.12;55.42
3096;BME280;1558;42.700;23.360;2023-11-19T12:27:39;95341.25;;;10.03;56.68
3096;BME280;1558;42.700;23.360;2023-11-19T12:30:08;95329.09;;;10.47;55.73
3096;BME280;1558;42.700;23.360;2023-11-19T12:32:40;95319.34;;;10.34;55.05
3096;BME280;1558;42.700;23.360;2023-11-19T12:35:09;95337.25;;;10.59;55.43
3096;BME280;1558;42.700;23.360;2023-11-19T12:37:40;95327.19;;;10.48;55.11
3096;BME280;1558;42.700;23.360;2023-11-19T12:40:14;95336.66;;;10.33;55.20
3096;BME280;1558;42.700;23.360;2023-11-19T12:42:43;95319.81;;;10.15;54.85
3096;BME280;1558;42.700;23.360;2023-11-19T12:45:12;95298.97;;;10.25;56.18
3096;BME280;1558;42.700;23.360;2023-11-19T12:47:40;95281.75;;;10.38;55.11
3096;BME280;1558;42.700;23.360;2023-11-19T12:50:09;95284.13;;;10.18;55.03
3096;BME280;1558;42.700;23.360;2023-11-19T12:52:38;95298.59;;;10.14;55.84
3096;BME280;1558;42.700;23.360;2023-11-19T12:55:26;95267.66;;;9.91;55.60
3096;BME280;1558;42.700;23.360;2023-11-19T12:57:59;95316.66;;;10.55;55.58
3096;BME280;1558;42.700;23.360;2023-11-19T13:00:31;95296.34;;;10.37;54.90
3096;BME280;1558;42.700;23.360;2023-11-19T13:02:59;95298.97;;;10.45;55.16
3096;BME280;1558;42.700;23.360;2023-11-19T13:05:30;95141.56;;;9.43;54.34
3096;BME280;1558;42.700;23.360;2023-11-19T13:08:03;95301.47;;;10.30;54.82
3096;BME280;1558;42.700;23.360;2023-11-19T13:13:17;95313.75;;;9.89;55.14
3096;BME280;1558;42.700;23.360;2023-11-19T13:15:47;95303.44;;;9.91;55.42
3096;BME280;1558;42.700;23.360;2023-11-19T13:18:16;95302.66;;;10.20;55.65
3096;BME280;1558;42.700;23.360;2023-11-19T13:20:44;95298.03;;;10.41;55.63
3096;BME280;1558;42.700;23.360;2023-11-19T13:23:12;95283.66;;;10.16;55.23
3096;BME280;1558;42.700;23.360;2023-11-19T13:25:44;95282.41;;;10.35;55.18
3096;BME280;1558;42.700;23.360;2023-11-19T13:28:13;95278.34;;;10.29;55.72
3096;BME280;1558;42.700;23.360;2023-11-19T13:30:41;95272.50;;;10.27;56.10
3096;BME280;1558;42.700;23.360;2023-11-19T13:33:09;95288.47;;;10.32;56.19
3096;BME280;1558;42.700;23.360;2023-11-19T13:35:39;95280.25;;;10.61;55.56
3096;BME280;1558;42.700;23.360;2023-11-19T13:38:07;95278.09;;;10.54;55.97
3096;BME280;1558;42.700;23.360;2023-11-19T13:40:36;95286.16;;;10.22;56.04
3096;BME280;1558;42.700;23.360;2023-11-19T13:43:07;95213.56;;;9.75;55.99
3096;BME280;1558;42.700;23.360;2023-11-19T13:45:35;95296.94;;;9.92;56.17
3096;BME280;1558;42.700;23.360;2023-11-19T13:48:04;95247.25;;;9.31;56.99
3096;BME280;1558;42.700;23.360;2023-11-19T13:50:32;95288.97;;;9.46;57.66